createdAt,value
2023-02-11T00:01:22.988Z,49.20
2023-02-11T00:03:50.839Z,49.20
2023-02-11T00:06:18.984Z,48.80
2023-02-11T00:08:48.559Z,49.10
2023-02-11T00:11:18.319Z,49.10
2023-02-11T00:13:46.813Z,48.80
2023-02-11T00:16:17.248Z,49.13
2023-02-11T00:18:45.312Z,49.13
2023-02-11T00:21:15.374Z,48.77
2023-02-11T00:23:43.638Z,48.87
2023-02-11T00:26:17.024Z,48.83
2023-02-11T00:28:46.513Z,48.90
2023-02-11T00:31:14.844Z,49.27
2023-02-11T00:33:42.897Z,49.07
2023-02-11T00:36:15.182Z,48.83
2023-02-11T00:38:44.658Z,48.80
2023-02-11T00:41:13.005Z,48.90
2023-02-11T00:43:42.954Z,48.83
2023-02-11T00:46:11.430Z,49.03
2023-02-11T00:48:39.503Z,49.07
2023-02-11T00:51:07.523Z,48.93
2023-02-11T00:53:35.579Z,49.07
2023-02-11T00:56:03.980Z,48.67
2023-02-11T00:58:31.830Z,48.70
2023-02-11T01:01:00.990Z,49.17
2023-02-11T01:03:29.057Z,48.97
2023-02-11T01:05:56.866Z,49.07
2023-02-11T01:08:24.718Z,49.23
2023-02-11T01:10:57.461Z,49.00
2023-02-11T01:13:25.720Z,48.77
2023-02-11T01:15:55.657Z,49.07
2023-02-11T01:18:25.934Z,48.60
2023-02-11T01:20:54.256Z,48.97
2023-02-11T01:23:22.702Z,48.90
2023-02-11T01:25:51.261Z,48.93
2023-02-11T01:28:21.047Z,49.03
2023-02-11T01:30:49.219Z,49.07
2023-02-11T01:33:17.263Z,49.17
2023-02-11T01:35:46.943Z,48.90
2023-02-11T01:38:22.456Z,48.87
2023-02-11T01:40:51.448Z,48.90
2023-02-11T01:43:19.620Z,48.87
2023-02-11T01:46:18.419Z,49.07
2023-02-11T01:48:49.438Z,49.20
2023-02-11T01:51:23.039Z,49.23
2023-02-11T01:54:09.718Z,48.90
2023-02-11T01:57:00.952Z,49.30
2023-02-11T01:59:33.113Z,49.20
2023-02-11T02:02:06.108Z,49.00
2023-02-11T02:04:39.897Z,48.83
2023-02-11T02:07:12.889Z,48.93
2023-02-11T02:09:45.266Z,49.03
2023-02-11T02:12:13.100Z,49.27
2023-02-11T02:14:41.453Z,48.90
2023-02-11T02:17:19.585Z,49.07
2023-02-11T02:20:11.793Z,49.10
2023-02-11T02:25:59.688Z,49.00
2023-02-11T02:29:14.296Z,49.00
2023-02-11T02:31:54.429Z,48.83
2023-02-11T02:34:30.306Z,49.00
2023-02-11T02:37:05.308Z,48.93
2023-02-11T02:39:36.058Z,49.07
2023-02-11T02:42:05.247Z,48.70
2023-02-11T02:44:34.322Z,49.23
2023-02-11T02:47:02.576Z,49.13
2023-02-11T02:49:31.909Z,49.27
2023-02-11T02:52:06.894Z,49.07
2023-02-11T02:54:54.610Z,49.07
2023-02-11T02:57:33.218Z,48.77
2023-02-11T03:00:13.847Z,49.03
2023-02-11T03:02:53.002Z,48.93
2023-02-11T03:05:31.684Z,49.17
2023-02-11T03:08:08.280Z,49.23
2023-02-11T03:10:39.367Z,48.80
2023-02-11T03:13:08.465Z,48.90
2023-02-11T03:15:39.747Z,49.13
2023-02-11T03:18:10.156Z,49.10
2023-02-11T03:20:42.392Z,48.77
2023-02-11T03:23:17.160Z,49.13
2023-02-11T03:25:51.964Z,49.03
2023-02-11T03:28:26.375Z,49.30
2023-02-11T03:31:00.542Z,48.90
2023-02-11T03:33:34.465Z,49.27
2023-02-11T03:36:08.673Z,49.07
2023-02-11T03:38:40.366Z,49.13
2023-02-11T03:41:10.051Z,48.97
2023-02-11T03:43:41.840Z,48.87
2023-02-11T03:46:11.778Z,49.13
2023-02-11T03:48:41.864Z,48.93
2023-02-11T03:51:13.293Z,49.17
2023-02-11T03:53:44.363Z,48.53
2023-02-11T03:56:16.764Z,48.90
2023-02-11T03:58:46.014Z,49.03
2023-02-11T04:01:13.984Z,49.17
2023-02-11T04:03:42.160Z,49.30
2023-02-11T04:06:11.319Z,49.20
2023-02-11T04:08:39.143Z,49.37
2023-02-11T04:11:06.936Z,49.33
2023-02-11T04:13:34.737Z,49.00
2023-02-11T04:16:02.698Z,49.00
2023-02-11T04:18:30.500Z,48.93
2023-02-11T04:20:58.297Z,48.77
2023-02-11T04:23:27.511Z,49.07
2023-02-11T04:25:55.324Z,49.10
2023-02-11T04:28:23.249Z,49.03
2023-02-11T04:30:51.793Z,49.07
2023-02-11T04:33:19.632Z,49.30
2023-02-11T04:35:47.466Z,49.13
2023-02-11T04:38:15.416Z,49.13
2023-02-11T04:40:44.585Z,49.37
2023-02-11T04:43:12.451Z,49.20
2023-02-11T04:45:40.418Z,49.00
2023-02-11T04:48:08.250Z,49.00
2023-02-11T04:50:36.070Z,49.03
2023-02-11T04:53:03.880Z,48.87
2023-02-11T04:55:31.682Z,49.20
2023-02-11T04:58:00.841Z,49.47
2023-02-11T05:00:28.685Z,49.27
2023-02-11T05:02:56.506Z,49.13
2023-02-11T05:05:24.334Z,48.97
2023-02-11T05:07:52.182Z,49.07
2023-02-11T05:10:20.216Z,48.97
2023-02-11T05:12:49.164Z,49.20
2023-02-11T05:15:18.526Z,49.10
2023-02-11T05:17:47.801Z,49.07
2023-02-11T05:20:15.682Z,48.97
2023-02-11T05:22:43.463Z,49.30
2023-02-11T05:25:11.413Z,49.07
2023-02-11T05:27:39.281Z,49.20
2023-02-11T05:30:08.517Z,49.03
2023-02-11T05:32:37.743Z,48.87
2023-02-11T05:35:06.129Z,49.20
2023-02-11T05:37:34.020Z,48.87
2023-02-11T05:40:02.153Z,48.67
2023-02-11T05:42:29.972Z,49.07
2023-02-11T05:44:57.853Z,48.97
2023-02-11T05:47:25.640Z,49.10
2023-02-11T05:49:54.782Z,48.90
2023-02-11T05:52:23.426Z,49.30
2023-02-11T05:54:51.744Z,49.17
2023-02-11T05:57:20.296Z,49.27
2023-02-11T05:59:48.079Z,49.47
2023-02-11T06:02:16.001Z,49.13
2023-02-11T06:04:44.227Z,49.53
2023-02-11T06:07:13.340Z,48.80
2023-02-11T06:09:41.184Z,49.27
2023-02-11T06:12:09.105Z,49.17
2023-02-11T06:14:36.909Z,48.90
2023-02-11T06:17:05.169Z,49.23
2023-02-11T06:19:33.004Z,48.93
2023-02-11T06:22:00.983Z,49.50
2023-02-11T06:24:54.773Z,49.27
2023-02-11T06:27:18.859Z,48.93
2023-02-11T06:29:47.026Z,48.97
2023-02-11T06:32:37.022Z,49.27
2023-02-11T06:35:03.144Z,49.13
2023-02-11T06:37:30.973Z,49.30
2023-02-11T06:40:00.148Z,49.10
2023-02-11T06:42:28.084Z,49.20
2023-02-11T06:44:55.882Z,49.33
2023-02-11T06:47:23.675Z,48.97
2023-02-11T06:49:51.475Z,49.13
2023-02-11T06:52:19.318Z,49.27
2023-02-11T06:54:47.138Z,49.37
2023-02-11T06:57:16.317Z,48.97
2023-02-11T06:59:44.134Z,48.60
2023-02-11T07:02:12.065Z,48.67
2023-02-11T07:04:39.879Z,49.00
2023-02-11T07:07:07.725Z,49.20
2023-02-11T07:09:35.501Z,49.00
2023-02-11T07:12:03.306Z,48.90
2023-02-11T07:14:32.444Z,49.00
2023-02-11T07:17:00.226Z,48.97
2023-02-11T07:19:28.085Z,49.20
2023-02-11T07:21:55.995Z,49.03
2023-02-11T07:24:24.860Z,48.97
2023-02-11T07:26:53.962Z,49.00
2023-02-11T07:29:22.059Z,49.17
2023-02-11T07:31:51.323Z,48.97
2023-02-11T07:34:19.203Z,48.93
2023-02-11T07:36:48.844Z,49.07
2023-02-11T07:39:16.700Z,49.20
2023-02-11T07:41:47.692Z,49.17
2023-02-11T07:44:15.568Z,49.23
2023-02-11T07:46:45.164Z,49.07
2023-02-11T07:49:14.362Z,49.20
2023-02-11T07:51:42.298Z,49.00
2023-02-11T07:54:12.400Z,49.30
2023-02-11T07:56:40.265Z,49.07
2023-02-11T07:59:08.028Z,49.13
2023-02-11T08:01:35.870Z,48.87
2023-02-11T08:04:05.086Z,49.00
2023-02-11T08:06:35.676Z,48.87
2023-02-11T08:09:09.293Z,49.10
2023-02-11T08:11:37.665Z,49.07
2023-02-11T08:14:05.563Z,49.10
2023-02-11T08:16:36.038Z,49.13
2023-02-11T08:19:06.208Z,49.17
2023-02-11T08:21:35.307Z,48.97
2023-02-11T08:24:04.026Z,49.17
2023-02-11T08:26:34.660Z,48.70
2023-02-11T08:29:06.219Z,49.27
2023-02-11T08:31:36.355Z,49.23
2023-02-11T08:34:04.359Z,48.87
2023-02-11T08:36:34.418Z,49.00
2023-02-11T08:39:18.039Z,49.20
2023-02-11T08:41:48.632Z,49.07
2023-02-11T08:44:16.490Z,49.37
2023-02-11T08:46:44.362Z,49.17
2023-02-11T08:49:12.409Z,49.30
2023-02-11T08:51:40.671Z,49.30
2023-02-11T08:54:10.308Z,49.27
2023-02-11T08:56:38.842Z,49.10
2023-02-11T08:59:06.980Z,49.23
2023-02-11T09:01:35.009Z,49.23
2023-02-11T09:04:04.337Z,49.23
2023-02-11T09:06:32.823Z,49.27
2023-02-11T09:09:00.634Z,49.17
2023-02-11T09:11:31.752Z,49.40
2023-02-11T09:13:59.786Z,49.13
2023-02-11T09:16:29.271Z,49.63
2023-02-11T09:18:58.996Z,49.20
2023-02-11T09:21:27.351Z,49.00
2023-02-11T09:23:55.803Z,49.33
2023-02-11T09:26:26.427Z,48.93
2023-02-11T09:28:56.102Z,49.13
2023-02-11T09:31:26.158Z,49.07
2023-02-11T09:33:56.485Z,49.50
2023-02-11T09:36:26.447Z,49.57
2023-02-11T09:38:54.686Z,48.77
2023-02-11T09:41:44.929Z,49.33
2023-02-11T09:44:21.511Z,49.00
2023-02-11T09:46:55.635Z,49.23
2023-02-11T09:49:28.230Z,49.47
2023-02-11T09:52:02.552Z,49.40
2023-02-11T09:54:35.866Z,49.17
2023-02-11T09:57:03.937Z,49.27
2023-02-11T09:59:33.205Z,49.63
2023-02-11T10:02:05.637Z,49.23
2023-02-11T10:04:50.089Z,49.33
2023-02-11T10:07:26.188Z,49.17
2023-02-11T10:10:08.570Z,49.13
2023-02-11T10:12:53.395Z,49.10
2023-02-11T10:15:32.233Z,49.03
2023-02-11T10:18:22.427Z,49.67
2023-02-11T10:20:58.273Z,49.13
2023-02-11T10:23:30.405Z,48.97
2023-02-11T10:26:00.094Z,49.47
2023-02-11T10:28:31.650Z,49.50
2023-02-11T10:31:03.718Z,49.27
2023-02-11T10:33:37.948Z,49.23
2023-02-11T10:36:06.816Z,49.37
2023-02-11T10:38:36.294Z,49.23
2023-02-11T10:41:04.263Z,49.47
2023-02-11T10:43:34.259Z,49.43
2023-02-11T10:46:05.448Z,49.50
2023-02-11T10:48:42.869Z,49.37
2023-02-11T10:51:22.384Z,49.60
2023-02-11T10:53:51.992Z,49.10
2023-02-11T10:56:25.179Z,49.47
2023-02-11T10:59:01.235Z,49.10
2023-02-11T11:01:46.450Z,49.17
2023-02-11T11:04:36.397Z,49.33
2023-02-11T11:07:20.688Z,49.33
2023-02-11T11:09:52.301Z,49.30
2023-02-11T11:12:30.549Z,49.37
2023-02-11T11:15:00.213Z,49.47
2023-02-11T11:17:30.418Z,49.27
2023-02-11T11:20:16.960Z,48.97
2023-02-11T11:22:45.941Z,49.20
2023-02-11T11:25:25.492Z,49.10
2023-02-11T11:27:55.794Z,49.47
2023-02-11T11:30:26.101Z,49.30
2023-02-11T11:32:56.459Z,49.33
2023-02-11T11:35:27.767Z,49.37
2023-02-11T11:38:00.567Z,49.13
2023-02-11T11:40:30.912Z,49.40
2023-02-11T11:43:08.156Z,49.33
2023-02-11T11:45:36.061Z,48.93
2023-02-11T11:48:13.585Z,49.43
2023-02-11T11:50:44.354Z,49.07
2023-02-11T11:53:17.170Z,49.43
2023-02-11T11:55:47.308Z,49.33
2023-02-11T11:58:17.878Z,49.63
2023-02-11T12:00:59.130Z,49.40
2023-02-11T12:04:27.500Z,49.27
2023-02-11T12:07:09.537Z,49.27
2023-02-11T12:09:49.127Z,49.33
2023-02-11T12:12:32.113Z,49.30
2023-02-11T12:15:16.273Z,49.20
2023-02-11T12:17:56.718Z,49.07
2023-02-11T12:20:37.743Z,49.30
2023-02-11T12:23:20.982Z,49.27
2023-02-11T12:25:57.820Z,49.10
2023-02-11T12:28:35.737Z,49.30
2023-02-11T12:31:23.263Z,49.60
2023-02-11T12:34:25.464Z,49.30
2023-02-11T12:37:07.908Z,49.43
2023-02-11T12:39:43.550Z,49.70
2023-02-11T12:42:44.665Z,49.20
2023-02-11T12:45:23.311Z,49.60
2023-02-11T12:48:10.944Z,49.43
2023-02-11T12:50:51.100Z,49.67
2023-02-11T12:53:35.898Z,49.33
2023-02-11T12:56:10.712Z,49.63
2023-02-11T12:58:45.425Z,49.47
2023-02-11T13:01:20.108Z,49.43
2023-02-11T13:03:52.405Z,49.77
2023-02-11T13:06:23.700Z,49.27
2023-02-11T13:08:58.451Z,49.53
2023-02-11T13:11:28.898Z,49.43
2023-02-11T13:14:01.645Z,49.63
2023-02-11T13:16:36.864Z,49.57
2023-02-11T13:19:15.477Z,49.50
2023-02-11T13:21:55.598Z,49.37
2023-02-11T13:24:34.375Z,49.33
2023-02-11T13:27:10.726Z,49.37
2023-02-11T13:29:58.398Z,49.53
2023-02-11T13:32:26.290Z,48.93
2023-02-11T13:35:00.217Z,49.60
2023-02-11T13:37:32.769Z,49.63
2023-02-11T13:40:04.432Z,49.67
2023-02-11T13:42:35.359Z,49.63
2023-02-11T13:45:04.080Z,49.80
2023-02-11T13:47:34.611Z,49.50
2023-02-11T13:50:07.107Z,49.63
2023-02-11T13:52:38.383Z,49.43
2023-02-11T13:55:16.108Z,49.50
2023-02-11T13:57:44.113Z,49.30
2023-02-11T14:00:51.001Z,49.80
2023-02-11T14:03:45.813Z,49.87
2023-02-11T14:06:34.451Z,49.67
2023-02-11T14:09:26.121Z,49.40
2023-02-11T14:12:15.929Z,49.43
2023-02-11T14:15:03.347Z,49.77
2023-02-11T14:17:34.246Z,49.80
2023-02-11T14:20:05.434Z,50.00
2023-02-11T14:22:47.680Z,49.70
2023-02-11T14:25:22.748Z,49.73
2023-02-11T14:27:57.075Z,49.67
2023-02-11T14:30:35.748Z,49.83
2023-02-11T14:33:23.586Z,49.63
2023-02-11T14:36:03.129Z,49.77
2023-02-11T14:38:41.793Z,49.73
2023-02-11T14:41:17.512Z,49.87
2023-02-11T14:43:49.747Z,49.70
2023-02-11T14:46:19.700Z,49.73
2023-02-11T14:48:49.546Z,49.80
2023-02-11T14:51:20.686Z,49.67
2023-02-11T14:53:51.635Z,49.80
2023-02-11T14:56:21.992Z,49.80
2023-02-11T14:58:52.681Z,49.63
2023-02-11T15:01:27.789Z,49.80
2023-02-11T15:03:56.368Z,49.80
2023-02-11T15:06:27.680Z,49.63
2023-02-11T15:09:00.681Z,49.83
2023-02-11T15:11:32.599Z,49.83
2023-02-11T15:14:09.332Z,49.70
2023-02-11T15:16:42.831Z,49.10
2023-02-11T15:19:21.537Z,49.40
2023-02-11T15:21:50.594Z,49.77
2023-02-11T15:24:27.361Z,49.77
2023-02-11T15:27:03.309Z,49.53
2023-02-11T15:29:38.720Z,49.80
2023-02-11T15:32:13.106Z,49.70
2023-02-11T15:34:41.085Z,49.50
2023-02-11T15:37:11.180Z,49.70
2023-02-11T15:39:41.009Z,49.47
2023-02-11T15:42:26.814Z,49.80
2023-02-11T15:45:23.756Z,49.37
2023-02-11T15:47:53.969Z,49.77
2023-02-11T15:50:24.229Z,49.70
2023-02-11T15:52:52.827Z,50.03
2023-02-11T15:55:21.707Z,49.73
2023-02-11T15:57:54.739Z,49.67
2023-02-11T16:00:26.682Z,49.67
2023-02-11T16:02:54.715Z,49.50
2023-02-11T16:05:32.024Z,49.57
2023-02-11T16:08:00.943Z,49.47
2023-02-11T16:10:31.546Z,49.83
2023-02-11T16:13:19.116Z,49.73
2023-02-11T16:15:52.270Z,49.33
2023-02-11T16:18:38.354Z,49.47
2023-02-11T16:21:13.133Z,49.53
2023-02-11T16:23:42.971Z,49.90
2023-02-11T16:26:20.621Z,49.67
2023-02-11T16:28:48.751Z,49.47
2023-02-11T16:31:18.376Z,49.50
2023-02-11T16:33:46.391Z,49.50
2023-02-11T16:36:17.049Z,49.40
2023-02-11T16:38:44.917Z,49.37
2023-02-11T16:41:12.758Z,49.57
2023-02-11T16:43:40.731Z,49.80
2023-02-11T16:46:09.195Z,49.57
2023-02-11T16:48:39.003Z,49.67
2023-02-11T16:51:09.141Z,49.43
2023-02-11T16:53:36.969Z,49.43
2023-02-11T16:56:05.273Z,49.37
2023-02-11T16:58:33.597Z,49.47
2023-02-11T17:01:02.013Z,49.50
2023-02-11T17:03:30.792Z,49.40
2023-02-11T17:06:02.753Z,49.77
2023-02-11T17:08:30.740Z,50.00
2023-02-11T17:10:58.640Z,49.90
2023-02-11T17:13:26.527Z,49.50
2023-02-11T17:15:54.785Z,49.97
2023-02-11T17:18:22.814Z,49.90
2023-02-11T17:20:50.646Z,49.97
2023-02-11T17:23:19.871Z,49.90
2023-02-11T17:25:47.703Z,49.67
2023-02-11T17:28:15.562Z,49.60
2023-02-11T17:30:43.976Z,49.57
2023-02-11T17:33:11.859Z,49.63
2023-02-11T17:35:41.379Z,49.93
2023-02-11T17:38:09.197Z,49.90
2023-02-11T17:40:38.431Z,49.80
2023-02-11T17:43:06.293Z,49.77
2023-02-11T17:45:34.158Z,49.83
2023-02-11T17:48:01.954Z,49.70
2023-02-11T17:50:29.804Z,49.73
2023-02-11T17:52:57.865Z,49.77
2023-02-11T17:55:25.642Z,49.93
2023-02-11T17:57:55.390Z,49.60
2023-02-11T18:00:23.673Z,49.67
2023-02-11T18:02:51.586Z,49.77
2023-02-11T18:05:19.363Z,49.70
2023-02-11T18:07:48.357Z,49.50
2023-02-11T18:10:16.204Z,49.57
2023-02-11T18:12:44.868Z,49.63
2023-02-11T18:15:14.200Z,49.77
2023-02-11T18:17:42.197Z,49.70
2023-02-11T18:20:10.804Z,49.60
2023-02-11T18:22:40.812Z,49.77
2023-02-11T18:25:09.682Z,49.60
2023-02-11T18:27:37.621Z,49.60
2023-02-11T18:30:06.766Z,49.80
2023-02-11T18:32:35.952Z,49.60
2023-02-11T18:35:03.772Z,49.67
2023-02-11T18:37:31.572Z,49.67
2023-02-11T18:39:59.425Z,49.87
2023-02-11T18:42:28.026Z,49.57
2023-02-11T18:44:55.785Z,49.70
2023-02-11T18:47:23.585Z,49.70
2023-02-11T18:49:52.713Z,49.83
2023-02-11T18:52:20.576Z,49.47
2023-02-11T18:54:51.267Z,50.00
2023-02-11T18:57:19.075Z,49.73
2023-02-11T18:59:46.883Z,49.90
2023-02-11T19:02:14.687Z,49.67
2023-02-11T19:04:42.500Z,49.80
2023-02-11T19:07:11.805Z,49.77
2023-02-11T19:09:39.899Z,50.07
2023-02-11T19:12:08.561Z,49.93
2023-02-11T19:14:36.900Z,49.67
2023-02-11T19:17:06.797Z,49.80
2023-02-11T19:19:36.386Z,49.80
2023-02-11T19:22:07.925Z,50.03
2023-02-11T19:24:39.538Z,49.83
2023-02-11T19:27:07.386Z,49.80
2023-02-11T19:29:35.434Z,50.00
2023-02-11T19:32:03.446Z,49.77
2023-02-11T19:34:31.314Z,49.83
2023-02-11T19:37:00.814Z,49.87
2023-02-11T19:39:28.612Z,49.67
2023-02-11T19:41:57.935Z,49.87
2023-02-11T19:44:25.728Z,49.67
2023-02-11T19:46:54.657Z,49.70
2023-02-11T19:49:25.739Z,49.93
2023-02-11T19:51:55.244Z,49.70
2023-02-11T19:54:23.313Z,50.00
2023-02-11T19:56:51.122Z,49.57
2023-02-11T19:59:20.948Z,49.77
2023-02-11T20:01:49.225Z,50.00
2023-02-11T20:04:17.764Z,49.70
2023-02-11T20:06:48.014Z,49.80
2023-02-11T20:09:16.104Z,49.70
2023-02-11T20:11:44.012Z,49.60
2023-02-11T20:14:14.647Z,49.80
2023-02-11T20:16:49.044Z,49.77
2023-02-11T20:19:19.240Z,49.77
2023-02-11T20:21:49.074Z,49.97
2023-02-11T20:24:17.006Z,50.13
2023-02-11T20:26:46.411Z,50.10
2023-02-11T20:29:14.319Z,49.77
2023-02-11T20:31:43.791Z,49.83
2023-02-11T20:34:12.827Z,50.10
2023-02-11T20:36:41.099Z,49.70
2023-02-11T20:39:09.701Z,49.90
2023-02-11T20:41:39.609Z,50.00
2023-02-11T20:44:09.169Z,49.90
2023-02-11T20:46:39.889Z,49.87
2023-02-11T20:49:11.068Z,49.80
2023-02-11T20:51:39.142Z,50.10
2023-02-11T20:54:07.359Z,49.80
2023-02-11T20:56:37.419Z,50.03
2023-02-11T20:59:06.195Z,49.83
2023-02-11T21:01:35.704Z,49.83
2023-02-11T21:04:06.571Z,49.73
2023-02-11T21:06:37.372Z,49.87
2023-02-11T21:09:07.394Z,50.07
2023-02-11T21:11:35.578Z,49.90
2023-02-11T21:14:03.494Z,49.97
2023-02-11T21:16:31.465Z,49.93
2023-02-11T21:19:00.425Z,49.80
2023-02-11T21:21:28.397Z,49.73
2023-02-11T21:23:58.396Z,49.73
2023-02-11T21:26:26.549Z,49.67
2023-02-11T21:28:55.057Z,49.80
2023-02-11T21:31:24.860Z,49.77
2023-02-11T21:33:54.930Z,49.50
2023-02-11T21:36:23.078Z,49.83
2023-02-11T21:38:51.349Z,49.87
2023-02-11T21:41:22.819Z,49.83
2023-02-11T21:43:51.456Z,49.83
2023-02-11T21:46:19.896Z,50.20
2023-02-11T21:48:48.395Z,49.80
2023-02-11T21:51:17.392Z,49.73
2023-02-11T21:53:45.455Z,49.97
2023-02-11T21:56:15.099Z,49.80
2023-02-11T21:58:44.971Z,49.60
2023-02-11T22:01:14.315Z,49.73
2023-02-11T22:03:42.895Z,49.70
2023-02-11T22:06:12.411Z,50.10
2023-02-11T22:08:40.496Z,50.00
2023-02-11T22:11:11.050Z,49.90
2023-02-11T22:13:39.455Z,50.10
2023-02-11T22:16:10.924Z,49.77
2023-02-11T22:18:39.296Z,49.57
2023-02-11T22:21:08.876Z,49.70
2023-02-11T22:23:37.951Z,49.87
2023-02-11T22:26:08.819Z,49.93
2023-02-11T22:28:38.906Z,49.80
2023-02-11T22:31:09.175Z,50.00
2023-02-11T22:33:37.015Z,49.57
2023-02-11T22:36:08.446Z,49.67
2023-02-11T22:38:36.675Z,49.87
2023-02-11T22:41:07.743Z,49.67
2023-02-11T22:43:35.564Z,50.07
2023-02-11T22:46:04.088Z,49.90
2023-02-11T22:48:34.136Z,49.80
2023-02-11T22:51:05.321Z,49.90
2023-02-11T22:53:33.166Z,49.87
2023-02-11T22:56:04.126Z,49.60
2023-02-11T22:58:32.009Z,49.67
2023-02-11T23:01:00.116Z,50.20
2023-02-11T23:03:29.212Z,49.73
2023-02-11T23:05:58.926Z,49.70
2023-02-11T23:08:27.756Z,49.77
2023-02-11T23:10:55.670Z,49.63
2023-02-11T23:13:23.531Z,49.87
2023-02-11T23:15:51.314Z,49.83
2023-02-11T23:18:19.094Z,49.83
2023-02-11T23:20:46.917Z,49.73
2023-02-11T23:23:16.159Z,49.97
2023-02-11T23:25:44.847Z,49.87
2023-02-11T23:28:13.508Z,49.97
2023-02-11T23:30:42.189Z,49.87
2023-02-11T23:33:10.156Z,49.83
2023-02-11T23:35:38.157Z,49.57
2023-02-11T23:38:05.905Z,49.73
2023-02-11T23:40:35.127Z,50.10
2023-02-11T23:43:03.015Z,49.57
2023-02-11T23:45:30.793Z,49.57
2023-02-11T23:47:58.581Z,50.10
2023-02-11T23:50:26.404Z,50.03
2023-02-11T23:52:54.193Z,49.83
2023-02-11T23:55:22.028Z,49.87
2023-02-11T23:57:51.133Z,50.00
